Time;durP1;ratioP1;P1;durP2;ratioP2;P2;SDS_P1;SDS_P2;PMS_P1;PMS_P2;Temp;Humidity;BMP_temperature;BMP_pressure;BME280_temperature;BME280_humidity;BME280_pressure;Samples;Min_cycle;Max_cycle;Signal;HPM_P1;HPM_P2
2022/05/04 00:01:33;;;;;;;11.50;3.90;;;9.20;99.90;;;;;;5035522;28;20033;-64
2022/05/04 00:03:59;;;;;;;10.38;3.60;;;9.30;99.90;;;;;;5035664;28;20044;-65
2022/05/04 00:06:26;;;;;;;9.57;3.83;;;9.30;99.90;;;;;;5035336;28;20133;-64
2022/05/04 00:08:52;;;;;;;10.98;3.42;;;9.20;99.90;;;;;;5034922;28;20025;-63
2022/05/04 00:11:18;;;;;;;8.73;3.78;;;9.30;99.90;;;;;;5033260;28;20033;-62
2022/05/04 00:13:43;;;;;;;13.63;5.82;;;9.30;99.90;;;;;;5033788;28;20035;-61
2022/05/04 00:16:09;;;;;;;13.93;5.57;;;9.30;99.90;;;;;;5033681;28;20060;-63
2022/05/04 00:18:34;;;;;;;12.32;3.95;;;9.30;99.90;;;;;;5033527;28;20071;-61
2022/05/04 00:21:00;;;;;;;9.68;3.67;;;9.30;99.90;;;;;;5034848;28;20033;-62
2022/05/04 00:23:26;;;;;;;10.80;4.13;;;9.30;99.90;;;;;;5034930;28;20093;-62
2022/05/04 00:25:52;;;;;;;12.63;4.00;;;9.30;99.90;;;;;;5034744;28;20366;-64
2022/05/04 00:28:18;;;;;;;15.43;5.53;;;9.30;99.90;;;;;;5034521;28;20041;-64
2022/05/04 00:30:44;;;;;;;13.48;4.35;;;9.30;99.90;;;;;;5034727;28;20036;-64
2022/05/04 00:33:10;;;;;;;12.68;5.10;;;9.30;99.90;;;;;;5035087;28;20079;-66
2022/05/04 00:35:36;;;;;;;13.95;4.00;;;9.40;99.90;;;;;;5034653;28;20018;-63
2022/05/04 00:38:02;;;;;;;10.60;4.10;;;9.40;99.90;;;;;;5034809;28;20028;-65
2022/05/04 00:40:27;;;;;;;14.55;4.00;;;9.40;99.90;;;;;;5034429;28;20346;-64
2022/05/04 00:42:53;;;;;;;8.23;3.60;;;9.40;99.90;;;;;;5033897;28;20421;-61
2022/05/04 00:45:19;;;;;;;13.20;4.03;;;9.40;99.90;;;;;;5033064;28;20032;-62
2022/05/04 00:47:44;;;;;;;13.02;3.72;;;9.40;99.90;;;;;;5034341;28;20031;-61
2022/05/04 00:50:10;;;;;;;10.68;3.90;;;9.30;99.90;;;;;;5033504;28;20032;-63
2022/05/04 00:52:39;;;;;;;17.50;4.93;;;9.30;99.90;;;;;;5033063;28;20033;-63
2022/05/04 00:55:09;;;;;;;15.32;4.57;;;9.30;99.90;;;;;;5034241;28;20036;-65
2022/05/04 01:00:21;;;;;;;11.05;4.35;;;9.30;99.90;;;;;;5034090;28;20028;-64
2022/05/04 01:02:46;;;;;;;10.32;3.85;;;9.20;99.90;;;;;;5034262;28;20017;-61
2022/05/04 01:05:12;;;;;;;9.05;3.53;;;9.20;99.90;;;;;;5034033;28;20025;-62
2022/05/04 01:07:42;;;;;;;11.25;4.15;;;9.20;99.90;;;;;;5033809;28;20033;-64
2022/05/04 01:10:10;;;;;;;10.90;3.95;;;9.20;99.90;;;;;;5033768;28;20087;-65
2022/05/04 01:12:48;;;;;;;12.10;4.55;;;9.10;99.90;;;;;;5034072;28;20049;-62
2022/05/04 01:15:14;;;;;;;10.02;3.60;;;9.10;99.90;;;;;;5033653;28;20440;-61
2022/05/04 01:17:39;;;;;;;13.32;4.18;;;9.10;99.90;;;;;;5033847;28;20013;-63
2022/05/04 01:20:05;;;;;;;11.02;4.20;;;9.00;99.90;;;;;;5033963;28;20079;-65
2022/05/04 01:22:31;;;;;;;10.70;4.13;;;9.00;99.90;;;;;;5033405;28;20017;-62
2022/05/04 01:24:56;;;;;;;12.45;3.97;;;8.90;99.90;;;;;;5033828;28;20123;-63
2022/05/04 01:27:22;;;;;;;13.10;3.80;;;8.80;99.90;;;;;;5032211;28;20048;-61
2022/05/04 01:29:48;;;;;;;16.30;4.60;;;8.80;99.90;;;;;;5033749;28;20461;-61
2022/05/04 01:32:14;;;;;;;13.15;4.47;;;8.70;99.90;;;;;;5033509;28;20457;-61
2022/05/04 01:34:39;;;;;;;13.40;3.90;;;8.60;99.90;;;;;;5032551;28;20036;-62
2022/05/04 01:37:05;;;;;;;10.95;3.67;;;8.50;99.90;;;;;;5033426;28;20033;-63
2022/05/04 01:39:30;;;;;;;12.88;4.60;;;8.50;99.90;;;;;;5033558;28;20033;-63
2022/05/04 01:42:13;;;;;;;11.45;4.15;;;8.40;99.90;;;;;;5033596;28;20029;-63
2022/05/04 01:44:40;;;;;;;10.85;4.30;;;8.30;99.90;;;;;;5033219;28;20361;-65
2022/05/04 01:47:07;;;;;;;13.25;4.80;;;8.30;99.90;;;;;;5033711;28;20037;-63
2022/05/04 01:49:32;;;;;;;15.63;4.50;;;8.20;99.90;;;;;;5033382;28;20036;-62
2022/05/04 01:51:58;;;;;;;14.48;5.03;;;8.10;99.90;;;;;;5033549;28;20041;-62
2022/05/04 01:54:23;;;;;;;18.23;4.30;;;8.10;99.90;;;;;;5033583;28;20029;-64
2022/05/04 01:56:49;;;;;;;11.02;4.07;;;8.00;99.90;;;;;;5033275;28;20112;-61
2022/05/04 01:59:15;;;;;;;16.05;4.65;;;8.00;99.90;;;;;;5033090;28;20034;-65
2022/05/04 02:01:41;;;;;;;12.60;4.10;;;7.90;99.90;;;;;;5033253;28;20021;-63
2022/05/04 02:04:08;;;;;;;14.45;4.22;;;7.90;99.90;;;;;;5032708;28;20025;-62
2022/05/04 02:06:35;;;;;;;15.00;4.80;;;7.80;99.90;;;;;;5033145;28;20075;-63
2022/05/04 02:09:01;;;;;;;12.05;4.28;;;7.70;99.90;;;;;;5031860;28;20032;-61
2022/05/04 02:11:28;;;;;;;14.38;4.40;;;7.70;99.90;;;;;;5032699;28;20037;-61
2022/05/04 02:13:54;;;;;;;15.65;4.18;;;7.60;99.90;;;;;;5032764;28;20028;-64
2022/05/04 02:16:19;;;;;;;9.70;4.10;;;7.60;99.90;;;;;;5032714;28;20361;-62
2022/05/04 02:18:45;;;;;;;15.18;4.28;;;7.60;99.90;;;;;;5032371;28;20025;-65
2022/05/04 02:21:11;;;;;;;9.15;3.97;;;7.50;99.90;;;;;;5032735;28;20151;-66
2022/05/04 02:23:36;;;;;;;13.77;4.32;;;7.50;99.90;;;;;;5033129;28;20022;-64
2022/05/04 02:26:02;;;;;;;10.27;4.10;;;7.40;99.90;;;;;;5032468;28;20476;-62
2022/05/04 02:28:28;;;;;;;12.07;4.10;;;7.50;99.90;;;;;;5032710;28;20056;-65
2022/05/04 02:30:53;;;;;;;10.80;3.88;;;7.50;99.90;;;;;;5032370;28;20030;-62
2022/05/04 02:33:19;;;;;;;14.20;4.43;;;7.50;99.90;;;;;;5032201;28;20083;-62
2022/05/04 02:38:29;;;;;;;12.68;4.00;;;7.50;99.90;;;;;;5032419;28;20028;-66
2022/05/04 02:40:54;;;;;;;10.27;4.55;;;7.50;99.90;;;;;;5032194;28;20025;-62
2022/05/04 02:43:20;;;;;;;11.20;4.13;;;7.50;99.90;;;;;;5032577;28;20450;-61
2022/05/04 02:45:45;;;;;;;13.90;4.60;;;7.40;99.90;;;;;;5032155;28;20037;-65
2022/05/04 02:48:11;;;;;;;11.30;4.25;;;7.40;99.90;;;;;;5032304;28;20048;-63
2022/05/04 02:50:37;;;;;;;13.43;4.93;;;7.30;99.90;;;;;;5032763;28;20033;-65
2022/05/04 02:53:04;;;;;;;8.25;3.67;;;7.30;99.90;;;;;;5032379;28;20025;-62
2022/05/04 02:55:30;;;;;;;13.10;4.47;;;7.20;99.90;;;;;;5032359;28;20458;-62
2022/05/04 02:57:55;;;;;;;11.35;4.63;;;7.10;99.90;;;;;;5032385;28;20104;-62
2022/05/04 03:00:21;;;;;;;12.52;4.43;;;7.00;99.90;;;;;;5031275;28;20025;-65
2022/05/04 03:02:47;;;;;;;17.13;4.50;;;7.00;99.90;;;;;;5032628;28;20028;-61
2022/05/04 03:05:14;;;;;;;12.48;4.68;;;6.90;99.90;;;;;;5032333;28;20052;-64
2022/05/04 03:07:40;;;;;;;10.77;4.13;;;6.90;99.90;;;;;;5032568;28;20018;-64
2022/05/04 03:10:06;;;;;;;12.40;4.40;;;6.80;99.90;;;;;;5032186;28;20072;-64
2022/05/04 03:12:32;;;;;;;11.85;4.35;;;6.80;99.90;;;;;;5032251;28;20033;-63
2022/05/04 03:14:58;;;;;;;15.65;4.93;;;6.70;99.90;;;;;;5032881;28;20113;-63
2022/05/04 03:17:24;;;;;;;15.02;4.88;;;6.70;99.90;;;;;;5036319;28;20441;-63
2022/05/04 03:19:49;;;;;;;13.10;4.55;;;6.60;99.90;;;;;;5036862;28;20021;-65
2022/05/04 03:22:15;;;;;;;16.38;4.18;;;6.60;99.90;;;;;;5036494;28;20029;-63
2022/05/04 03:24:41;;;;;;;17.83;4.78;;;6.50;99.90;;;;;;5036418;28;20060;-62
2022/05/04 03:27:07;;;;;;;18.50;5.40;;;6.50;99.90;;;;;;5036182;28;20029;-65
2022/05/04 03:29:34;;;;;;;14.48;4.70;;;6.40;99.90;;;;;;5035929;28;20047;-65
2022/05/04 03:31:59;;;;;;;13.73;4.55;;;6.40;99.90;;;;;;5036352;28;20087;-62
2022/05/04 03:34:25;;;;;;;15.80;4.78;;;6.30;99.90;;;;;;5036127;28;20458;-63
2022/05/04 03:36:51;;;;;;;15.15;5.35;;;6.30;99.90;;;;;;5036267;28;20021;-64
2022/05/04 03:39:17;;;;;;;21.05;7.68;;;6.20;99.90;;;;;;5036349;28;20383;-63
2022/05/04 03:41:44;;;;;;;15.18;4.95;;;6.20;99.90;;;;;;5035944;28;20457;-65
2022/05/04 03:44:10;;;;;;;11.32;4.32;;;6.10;99.90;;;;;;5034372;28;20446;-65
2022/05/04 03:46:45;;;;;;;15.10;4.80;;;6.10;99.90;;;;;;5035962;28;20096;-67
2022/05/04 03:49:11;;;;;;;15.48;5.00;;;6.10;99.90;;;;;;5035957;28;20021;-66
2022/05/04 03:51:37;;;;;;;13.02;4.75;;;6.00;99.90;;;;;;5035602;28;20457;-66
2022/05/04 03:54:03;;;;;;;14.10;4.93;;;6.00;99.90;;;;;;5035951;28;20017;-63
2022/05/04 03:56:29;;;;;;;12.15;4.55;;;6.00;99.90;;;;;;5035530;28;20022;-61
2022/05/04 03:58:54;;;;;;;15.88;5.00;;;6.00;99.90;;;;;;5035873;28;20052;-65
2022/05/04 04:01:20;;;;;;;18.02;5.22;;;5.90;99.90;;;;;;5035801;28;20025;-63
2022/05/04 04:03:46;;;;;;;14.35;5.10;;;5.90;99.90;;;;;;5034271;28;20116;-62
2022/05/04 04:06:11;;;;;;;16.33;6.65;;;5.90;99.90;;;;;;5035725;28;20033;-62
2022/05/04 04:08:37;;;;;;;14.35;5.30;;;6.00;99.90;;;;;;5035256;28;20347;-64
2022/05/04 04:11:04;;;;;;;19.92;6.22;;;6.00;99.90;;;;;;5033682;28;20056;-63
2022/05/04 04:13:30;;;;;;;17.77;5.65;;;6.00;99.90;;;;;;5036127;28;20024;-61
2022/05/04 04:15:56;;;;;;;12.95;5.05;;;6.00;99.90;;;;;;5033878;28;20041;-61
2022/05/04 04:18:23;;;;;;;15.00;5.22;;;6.10;99.90;;;;;;5035392;28;20104;-65
2022/05/04 04:23:34;;;;;;;12.27;5.07;;;6.10;99.90;;;;;;5034711;28;20068;-64
2022/05/04 04:26:00;;;;;;;12.73;4.90;;;6.10;99.90;;;;;;5034960;28;20087;-63
2022/05/04 04:28:26;;;;;;;13.38;5.30;;;6.10;99.90;;;;;;5034694;28;20041;-62
2022/05/04 04:30:52;;;;;;;16.50;6.13;;;6.10;99.90;;;;;;5035263;28;20056;-63
2022/05/04 04:33:18;;;;;;;15.90;5.18;;;6.10;99.90;;;;;;5035059;28;20159;-66
2022/05/04 04:35:44;;;;;;;14.07;5.28;;;6.10;99.90;;;;;;5034885;28;20381;-61
2022/05/04 04:38:10;;;;;;;20.67;7.05;;;6.10;99.90;;;;;;5034625;28;20047;-66
2022/05/04 04:40:35;;;;;;;15.13;5.10;;;6.10;99.90;;;;;;5034168;28;20085;-61
2022/05/04 04:43:01;;;;;;;13.73;5.30;;;6.10;99.90;;;;;;5034678;28;20029;-63
2022/05/04 04:45:27;;;;;;;15.63;6.18;;;6.10;99.90;;;;;;5034421;28;20458;-62
2022/05/04 04:47:53;;;;;;;16.58;6.20;;;6.10;99.90;;;;;;5034735;28;20057;-62
2022/05/04 04:50:18;;;;;;;17.58;6.32;;;6.10;99.90;;;;;;5034281;28;20049;-61
2022/05/04 04:52:44;;;;;;;14.00;5.32;;;6.10;99.90;;;;;;5033905;28;20025;-61
2022/05/04 04:55:09;;;;;;;13.75;5.07;;;6.20;99.90;;;;;;5034392;28;20526;-61
2022/05/04 04:57:36;;;;;;;18.08;5.60;;;6.20;99.90;;;;;;5033204;28;20416;-61
2022/05/04 05:00:03;;;;;;;14.90;5.75;;;6.20;99.90;;;;;;5034417;28;20024;-61
2022/05/04 05:02:28;;;;;;;13.23;5.43;;;6.30;99.90;;;;;;5034669;28;20025;-62
2022/05/04 05:04:54;;;;;;;13.32;4.78;;;6.30;99.90;;;;;;5034343;28;20550;-62
2022/05/04 05:07:20;;;;;;;13.70;5.03;;;6.40;99.90;;;;;;5034065;28;20482;-62
2022/05/04 05:09:46;;;;;;;14.75;5.22;;;6.50;99.90;;;;;;5033927;28;20105;-61
2022/05/04 05:12:11;;;;;;;15.13;5.85;;;6.60;99.90;;;;;;5033864;28;20037;-62
2022/05/04 05:17:21;;;;;;;14.30;5.38;;;6.70;99.90;;;;;;5033959;28;20075;-61
2022/05/04 05:19:47;;;;;;;15.35;5.57;;;6.90;99.90;;;;;;5033669;28;20018;-61
2022/05/04 05:22:12;;;;;;;13.35;5.22;;;7.00;99.90;;;;;;5033865;28;20475;-61
2022/05/04 05:24:38;;;;;;;14.98;5.88;;;7.10;99.90;;;;;;5032865;28;20415;-61
2022/05/04 05:27:04;;;;;;;17.23;5.72;;;7.20;99.90;;;;;;5033966;28;20450;-62
2022/05/04 05:29:29;;;;;;;16.92;5.47;;;7.30;99.90;;;;;;5034007;28;20046;-62
2022/05/04 05:31:55;;;;;;;14.52;5.53;;;7.50;99.90;;;;;;5033830;28;20037;-62
2022/05/04 05:34:20;;;;;;;14.35;5.70;;;7.60;99.90;;;;;;5033945;28;20029;-62
2022/05/04 05:36:47;;;;;;;13.38;5.13;;;7.70;99.90;;;;;;5031841;28;20112;-62
2022/05/04 05:39:12;;;;;;;14.07;4.90;;;7.90;99.90;;;;;;5032873;28;20025;-61
2022/05/04 05:41:38;;;;;;;14.20;4.95;;;8.00;99.90;;;;;;5033181;28;20022;-61
2022/05/04 05:44:04;;;;;;;14.27;5.25;;;8.20;99.90;;;;;;5032089;28;20412;-61
2022/05/04 05:46:30;;;;;;;16.40;4.97;;;8.30;99.90;;;;;;5033637;28;20357;-61
2022/05/04 05:48:56;;;;;;;13.93;4.65;;;8.50;99.90;;;;;;5033305;28;20129;-62
2022/05/04 05:51:21;;;;;;;16.00;5.32;;;8.70;99.90;;;;;;5032212;28;20044;-62
2022/05/04 05:53:47;;;;;;;17.95;5.28;;;8.80;99.90;;;;;;5033164;28;20025;-61
2022/05/04 05:56:13;;;;;;;18.35;5.68;;;9.00;99.90;;;;;;5031922;28;20023;-68
2022/05/04 05:58:38;;;;;;;22.67;8.88;;;9.10;99.90;;;;;;5033157;28;20398;-62
2022/05/04 06:01:04;;;;;;;22.58;7.22;;;9.30;99.90;;;;;;5033220;28;20484;-66
2022/05/04 06:03:30;;;;;;;20.05;7.30;;;9.50;99.90;;;;;;5033138;28;20029;-63
2022/05/04 06:05:55;;;;;;;13.60;4.38;;;9.60;99.90;;;;;;5032775;28;20029;-62
2022/05/04 06:08:21;;;;;;;16.15;4.32;;;9.90;99.90;;;;;;5032672;28;20526;-61
2022/05/04 06:10:46;;;;;;;10.43;3.83;;;10.10;99.90;;;;;;5032713;28;20112;-62
2022/05/04 06:13:12;;;;;;;10.23;3.65;;;10.40;99.90;;;;;;5032761;28;20040;-62
2022/05/04 06:15:38;;;;;;;9.63;3.85;;;10.80;99.90;;;;;;5032591;28;20017;-64
2022/05/04 06:18:04;;;;;;;13.00;4.15;;;11.20;99.90;;;;;;5032450;28;20033;-67
2022/05/04 06:20:30;;;;;;;9.75;3.25;;;11.80;99.90;;;;;;5032818;28;20358;-66
2022/05/04 06:22:56;;;;;;;13.45;3.10;;;12.40;99.90;;;;;;5033094;28;20022;-67
2022/05/04 06:25:21;;;;;;;9.98;3.13;;;13.10;99.10;;;;;;5033360;28;20021;-63
2022/05/04 06:27:47;;;;;;;11.45;3.20;;;14.00;98.50;;;;;;5033043;28;20053;-62
2022/05/04 06:35:40;;;;;;;8.50;2.72;;;16.90;95.40;;;;;;5032616;28;20088;-63
2022/05/04 06:38:06;;;;;;;10.32;3.25;;;17.80;93.00;;;;;;5032843;28;20438;-64
2022/05/04 06:40:32;;;;;;;11.05;2.78;;;18.60;91.70;;;;;;5032653;28;20026;-64
2022/05/04 06:42:59;;;;;;;8.68;2.70;;;19.50;90.90;;;;;;5032968;28;20480;-63
2022/05/04 06:45:24;;;;;;;8.20;2.78;;;20.40;90.00;;;;;;5032646;28;20029;-64
2022/05/04 06:47:50;;;;;;;10.20;2.60;;;21.20;84.90;;;;;;5033109;28;20029;-65
2022/05/04 06:50:17;;;;;;;9.05;3.03;;;21.80;81.40;;;;;;5031938;28;20082;-61
2022/05/04 06:52:42;;;;;;;8.27;2.70;;;22.30;79.70;;;;;;5032929;28;20025;-62
2022/05/04 06:55:09;;;;;;;11.77;3.92;;;22.50;76.40;;;;;;5032532;28;20377;-64
2022/05/04 06:57:36;;;;;;;10.48;2.67;;;22.90;75.20;;;;;;5032498;28;20029;-63
2022/05/04 07:00:04;;;;;;;5.65;2.70;;;23.30;73.00;;;;;;5032380;28;20026;-62
2022/05/04 07:02:32;;;;;;;8.82;2.50;;;23.30;71.10;;;;;;5031299;28;20667;-63
2022/05/04 07:04:57;;;;;;;5.38;2.47;;;23.10;71.00;;;;;;5032233;28;20412;-63
2022/05/04 07:07:23;;;;;;;8.43;2.95;;;23.00;69.10;;;;;;5032147;28;20017;-67
2022/05/04 07:09:48;;;;;;;12.07;3.60;;;22.90;69.50;;;;;;5036381;28;20070;-66
2022/05/04 07:12:14;;;;;;;16.70;4.68;;;22.90;69.90;;;;;;5051556;28;20083;-64
2022/05/04 07:14:39;;;;;;;7.60;2.95;;;22.90;70.40;;;;;;5051199;28;20021;-66
2022/05/04 07:17:05;;;;;;;7.45;3.35;;;22.90;69.70;;;;;;5047025;28;20029;-63
2022/05/04 07:19:30;;;;;;;8.85;2.60;;;22.80;69.80;;;;;;5052198;28;20025;-63
2022/05/04 07:21:56;;;;;;;9.50;2.72;;;22.50;68.30;;;;;;5052070;28;20021;-62
2022/05/04 07:24:21;;;;;;;9.02;2.70;;;21.80;69.10;;;;;;5051235;28;20112;-65
2022/05/04 07:26:47;;;;;;;6.53;2.92;;;21.20;69.50;;;;;;5051982;28;20361;-63
2022/05/04 07:29:13;;;;;;;10.65;2.55;;;20.50;72.10;;;;;;5051795;28;20694;-61
2022/05/04 07:31:38;;;;;;;7.40;3.10;;;20.10;73.10;;;;;;5051743;28;20461;-64
2022/05/04 07:34:04;;;;;;;10.13;3.33;;;20.00;74.00;;;;;;5052008;28;20029;-64
2022/05/04 07:36:30;;;;;;;8.55;2.40;;;19.70;73.90;;;;;;5052199;28;20122;-63
2022/05/04 07:38:55;;;;;;;8.77;2.88;;;19.30;74.70;;;;;;5052204;28;20025;-65
2022/05/04 07:44:05;;;;;;;10.70;3.20;;;18.40;76.20;;;;;;5052060;28;20075;-64
2022/05/04 07:46:31;;;;;;;5.50;2.45;;;18.00;77.20;;;;;;5052149;28;20033;-66
2022/05/04 07:48:57;;;;;;;7.38;2.70;;;17.70;77.90;;;;;;5051921;28;20430;-64
2022/05/04 07:51:22;;;;;;;10.15;3.10;;;17.50;78.60;;;;;;5051898;28;20079;-62
2022/05/04 07:53:48;;;;;;;11.02;3.85;;;17.70;79.40;;;;;;5051611;28;20021;-63
2022/05/04 07:56:13;;;;;;;7.25;2.47;;;17.90;79.20;;;;;;5050511;28;20017;-61
2022/05/04 07:58:39;;;;;;;11.38;2.80;;;18.10;78.90;;;;;;5051706;28;20028;-62
2022/05/04 08:06:33;;;;;;;7.35;3.05;;;19.60;75.90;;;;;;5055453;28;20063;-64
2022/05/04 08:08:58;;;;;;;6.32;2.30;;;20.60;74.50;;;;;;5055607;28;20056;-66
2022/05/04 08:11:24;;;;;;;8.98;2.90;;;21.60;72.50;;;;;;5055697;28;20037;-65
2022/05/04 08:13:49;;;;;;;9.32;2.67;;;22.70;69.50;;;;;;5055403;28;20077;-65
2022/05/04 08:16:15;;;;;;;11.02;3.00;;;23.70;68.10;;;;;;5055203;28;20029;-62
2022/05/04 08:18:40;;;;;;;10.68;3.38;;;24.50;66.50;;;;;;5055356;28;20009;-64
2022/05/04 08:21:07;;;;;;;9.98;2.83;;;25.30;65.50;;;;;;5055542;28;20364;-62
2022/05/04 08:23:32;;;;;;;7.00;2.22;;;26.00;62.60;;;;;;5055269;28;20449;-63
2022/05/04 08:25:58;;;;;;;7.55;2.45;;;26.40;59.90;;;;;;5052982;28;20148;-63
2022/05/04 08:28:24;;;;;;;7.97;2.50;;;26.50;59.30;;;;;;5053658;28;20385;-65
2022/05/04 08:30:49;;;;;;;10.13;2.60;;;26.70;58.10;;;;;;5054828;28;20472;-62
2022/05/04 08:33:15;;;;;;;7.47;2.70;;;27.10;58.20;;;;;;5054933;28;20107;-61
2022/05/04 08:35:41;;;;;;;9.20;2.88;;;27.70;57.70;;;;;;5054072;28;20074;-63
2022/05/04 08:38:06;;;;;;;7.63;2.30;;;28.30;57.00;;;;;;5055199;28;20449;-64
2022/05/04 08:40:33;;;;;;;12.27;3.25;;;28.90;56.00;;;;;;5055271;28;20067;-62
2022/05/04 08:43:05;;;;;;;10.77;3.72;;;29.30;54.10;;;;;;5054879;28;20020;-63
2022/05/04 08:45:35;;;;;;;3.38;1.58;;;29.80;53.70;;;;;;5055163;28;20017;-63
2022/05/04 08:48:02;;;;;;;7.05;2.30;;;30.00;51.90;;;;;;5054863;28;20021;-63
2022/05/04 08:50:28;;;;;;;8.73;2.20;;;30.20;51.90;;;;;;5054700;28;20032;-63
2022/05/04 08:52:54;;;;;;;4.78;2.30;;;30.40;51.20;;;;;;5054470;28;20415;-64
2022/05/04 08:55:21;;;;;;;6.90;2.42;;;30.60;50.50;;;;;;5054687;28;20016;-62
2022/05/04 08:57:46;;;;;;;7.32;2.13;;;30.50;50.20;;;;;;5054686;28;20056;-65
2022/05/04 09:00:13;;;;;;;10.38;2.75;;;30.50;49.60;;;;;;5054289;28;20060;-61
2022/05/04 09:02:39;;;;;;;9.60;2.97;;;30.60;49.30;;;;;;5054342;28;20506;-65
2022/05/04 09:05:21;;;;;;;8.07;2.53;;;30.60;49.00;;;;;;5054154;28;20029;-66
2022/05/04 09:07:49;;;;;;;9.65;3.58;;;30.30;48.80;;;;;;5054639;28;20353;-64
2022/05/04 09:10:16;;;;;;;7.60;2.70;;;29.90;49.10;;;;;;5054227;28;20025;-65
2022/05/04 09:12:44;;;;;;;6.03;2.13;;;29.70;48.90;;;;;;5053259;28;20028;-63
2022/05/04 09:15:27;;;;;;;13.88;4.35;;;29.70;48.90;;;;;;5048576;28;20013;-63
2022/05/04 09:18:01;;;;;;;8.23;2.58;;;30.00;48.40;;;;;;5037889;28;20056;-65
2022/05/04 09:20:45;;;;;;;6.63;2.08;;;30.20;48.30;;;;;;5053737;28;20103;-63
2022/05/04 09:23:21;;;;;;;7.32;2.28;;;30.30;47.50;;;;;;5052638;28;20021;-65
2022/05/04 09:25:52;;;;;;;3.97;1.90;;;30.60;48.00;;;;;;5051284;28;20029;-65
2022/05/04 09:28:19;;;;;;;6.75;2.20;;;30.90;47.70;;;;;;5053816;28;20123;-63
2022/05/04 09:30:54;;;;;;;10.30;3.28;;;31.30;47.30;;;;;;5053870;28;20029;-62
2022/05/04 09:33:21;;;;;;;9.07;2.65;;;31.50;46.80;;;;;;5052273;28;20052;-63
2022/05/04 09:35:47;;;;;;;6.32;2.13;;;31.60;46.10;;;;;;5053859;28;20043;-64
2022/05/04 09:46:45;;;;;;;5.38;2.03;;;31.90;46.20;;;;;;5072718;28;20028;-63
2022/05/04 09:49:22;;;;;;;6.35;2.40;;;32.20;44.70;;;;;;5072507;28;20016;-64
2022/05/04 09:51:50;;;;;;;7.70;2.20;;;32.30;45.00;;;;;;5053944;28;20037;-63
2022/05/04 09:54:20;;;;;;;4.68;1.60;;;32.60;44.40;;;;;;5052710;28;20036;-62
2022/05/04 09:56:54;;;;;;;4.90;1.88;;;33.00;44.30;;;;;;5051724;28;20029;-62
2022/05/04 09:59:22;;;;;;;4.68;2.08;;;33.20;44.10;;;;;;5052739;28;20031;-63
2022/05/04 10:01:49;;;;;;;7.15;2.90;;;33.30;43.30;;;;;;5053079;28;20031;-65
2022/05/04 10:04:15;;;;;;;6.60;2.42;;;33.60;43.50;;;;;;5053155;28;20029;-66
2022/05/04 10:06:41;;;;;;;5.00;2.13;;;33.90;43.20;;;;;;5051764;28;20025;-65
2022/05/04 10:09:07;;;;;;;6.03;2.28;;;34.30;42.40;;;;;;5052641;28;20021;-61
2022/05/04 10:11:34;;;;;;;7.32;2.42;;;34.30;42.10;;;;;;5051726;28;20132;-62
2022/05/04 10:14:07;;;;;;;6.25;2.05;;;34.00;42.60;;;;;;5052407;28;20375;-61
2022/05/04 10:16:46;;;;;;;9.63;3.35;;;33.40;42.90;;;;;;5052603;28;20032;-64
2022/05/04 10:19:18;;;;;;;5.28;2.28;;;32.50;43.50;;;;;;5052408;28;20434;-65
2022/05/04 10:21:49;;;;;;;8.93;2.60;;;31.60;43.90;;;;;;5052561;28;20419;-63
2022/05/04 10:24:17;;;;;;;7.90;2.47;;;31.10;44.40;;;;;;5053650;28;20396;-64
2022/05/04 10:26:45;;;;;;;6.40;2.80;;;30.80;44.50;;;;;;5070096;28;20017;-65
2022/05/04 10:32:43;;;;;;;8.88;2.83;;;29.80;45.10;;;;;;5065130;28;20136;-65
2022/05/04 10:35:14;;;;;;;7.65;2.47;;;29.40;45.40;;;;;;5071229;28;20062;-67
2022/05/04 10:37:57;;;;;;;7.72;2.55;;;29.00;45.70;;;;;;5070845;28;20081;-66
2022/05/04 10:40:31;;;;;;;7.05;2.33;;;28.80;45.90;;;;;;5062277;28;20029;-66
2022/05/04 10:43:02;;;;;;;6.43;2.38;;;28.60;46.30;;;;;;5051671;28;20445;-67
2022/05/04 10:45:36;;;;;;;7.82;2.22;;;28.40;46.50;;;;;;5051594;28;20028;-64
2022/05/04 10:48:20;;;;;;;5.35;1.90;;;28.10;46.50;;;;;;5052131;28;20102;-66
2022/05/04 10:51:03;;;;;;;8.23;2.00;;;27.70;46.50;;;;;;5052001;28;20028;-63
2022/05/04 10:53:29;;;;;;;9.05;2.60;;;27.40;47.40;;;;;;5051218;28;20539;-62
2022/05/04 10:56:06;;;;;;;9.52;2.20;;;27.10;47.50;;;;;;5051437;28;20025;-63
2022/05/04 10:58:55;;;;;;;7.90;2.05;;;26.90;47.80;;;;;;5069903;28;20020;-65
2022/05/04 11:01:30;;;;;;;8.85;2.00;;;26.80;47.90;;;;;;5060284;28;20073;-63
2022/05/04 11:04:09;;;;;;;4.57;1.98;;;26.70;48.00;;;;;;5051350;28;20032;-65
2022/05/04 11:06:41;;;;;;;10.80;2.70;;;26.70;48.10;;;;;;5052293;28;20029;-65
2022/05/04 11:09:11;;;;;;;7.80;2.40;;;26.80;48.30;;;;;;5051870;28;20040;-63
2022/05/04 11:11:39;;;;;;;7.95;2.25;;;26.70;48.10;;;;;;5050531;28;20368;-66
2022/05/04 11:14:06;;;;;;;8.95;2.60;;;26.60;48.30;;;;;;5051441;28;20445;-66
2022/05/04 11:16:32;;;;;;;9.60;2.97;;;26.50;48.10;;;;;;5051583;28;20021;-63
2022/05/04 11:18:59;;;;;;;6.93;2.50;;;26.20;48.30;;;;;;5051880;28;20082;-64
2022/05/04 11:21:27;;;;;;;7.03;2.70;;;26.00;48.40;;;;;;5051776;28;20075;-63
2022/05/04 11:23:55;;;;;;;7.30;2.33;;;26.10;48.80;;;;;;5051498;28;20024;-63
2022/05/04 11:26:23;;;;;;;7.78;2.35;;;26.10;48.60;;;;;;5050970;28;20045;-63
2022/05/04 11:28:50;;;;;;;7.18;2.30;;;26.40;48.60;;;;;;5049798;28;20370;-61
2022/05/04 11:31:18;;;;;;;4.47;2.00;;;26.80;48.10;;;;;;5058751;28;20036;-65
2022/05/04 11:33:44;;;;;;;7.80;2.10;;;27.30;47.80;;;;;;5072253;28;20502;-62
2022/05/04 11:36:11;;;;;;;7.72;2.00;;;27.80;47.30;;;;;;5073148;28;20028;-62
2022/05/04 11:38:37;;;;;;;8.05;1.90;;;28.10;47.00;;;;;;5075658;28;20016;-64
2022/05/04 11:41:02;;;;;;;4.78;1.95;;;28.40;46.80;;;;;;5073996;28;20024;-65
2022/05/04 11:43:33;;;;;;;4.43;1.50;;;28.70;46.70;;;;;;5038676;28;20040;-65
2022/05/04 11:46:04;;;;;;;4.80;1.83;;;28.80;46.50;;;;;;5051370;28;20079;-66
2022/05/04 11:48:30;;;;;;;9.73;2.70;;;28.90;46.60;;;;;;5055398;28;20453;-66
2022/05/04 11:50:56;;;;;;;8.40;2.15;;;29.10;46.40;;;;;;5055326;28;20622;-65
2022/05/04 11:53:21;;;;;;;9.70;1.90;;;29.20;46.20;;;;;;5054337;28;20025;-65
2022/05/04 11:55:47;;;;;;;9.77;2.05;;;29.30;46.10;;;;;;5054498;28;20523;-65
2022/05/04 11:58:14;;;;;;;4.72;1.90;;;29.10;46.10;;;;;;5055009;28;20048;-65
2022/05/04 12:00:40;;;;;;;5.47;1.88;;;28.90;46.10;;;;;;5055551;28;20025;-63
2022/05/04 12:03:07;;;;;;;5.38;1.85;;;28.80;46.50;;;;;;5055611;28;20017;-62
2022/05/04 12:05:34;;;;;;;5.88;1.80;;;28.50;46.20;;;;;;5055703;28;20017;-62
2022/05/04 12:08:01;;;;;;;6.57;2.28;;;28.20;46.60;;;;;;5054988;28;20029;-62
2022/05/04 12:10:27;;;;;;;7.97;2.17;;;28.00;46.90;;;;;;5054533;28;20023;-64
2022/05/04 12:12:54;;;;;;;5.97;2.30;;;27.80;47.40;;;;;;5054306;28;20100;-62
2022/05/04 12:15:23;;;;;;;7.07;2.25;;;27.90;47.10;;;;;;5055480;28;20020;-63
2022/05/04 12:17:50;;;;;;;5.90;2.50;;;28.00;47.30;;;;;;5055130;28;20013;-60
2022/05/04 12:20:21;;;;;;;5.60;1.80;;;28.00;47.20;;;;;;5053922;28;20094;-65
2022/05/04 12:22:48;;;;;;;5.70;1.92;;;28.10;47.40;;;;;;5054694;28;20013;-64
2022/05/04 12:25:14;;;;;;;9.63;2.35;;;28.30;47.00;;;;;;5054123;28;20048;-62
2022/05/04 12:27:40;;;;;;;7.85;2.03;;;28.50;46.90;;;;;;5054892;28;20437;-62
2022/05/04 12:33:09;;;;;;;9.40;2.33;;;28.80;46.60;;;;;;5054763;28;20101;-65
2022/05/04 12:35:42;;;;;;;7.85;2.70;;;28.70;46.70;;;;;;5054502;28;20593;-62
2022/05/04 12:38:09;;;;;;;8.50;2.75;;;28.40;46.80;;;;;;5054752;28;20048;-64
2022/05/04 12:40:35;;;;;;;8.80;2.17;;;27.90;47.00;;;;;;5054705;28;20049;-62
2022/05/04 12:43:03;;;;;;;8.48;2.50;;;27.60;47.50;;;;;;5054651;28;20104;-61
2022/05/04 12:45:28;;;;;;;7.50;2.53;;;27.20;47.90;;;;;;5054565;28;20025;-64
2022/05/04 12:47:55;;;;;;;5.88;2.05;;;27.10;48.00;;;;;;5054032;28;20036;-63
2022/05/04 12:50:25;;;;;;;8.15;2.72;;;27.00;48.20;;;;;;5054935;28;20021;-65
2022/05/04 12:52:51;;;;;;;7.88;2.15;;;26.90;48.30;;;;;;5054687;28;20072;-65
2022/05/04 12:55:18;;;;;;;6.50;2.15;;;26.60;48.50;;;;;;5053325;28;20464;-62
2022/05/04 12:57:44;;;;;;;5.20;2.13;;;26.30;48.70;;;;;;5054566;28;20025;-65
2022/05/04 13:00:13;;;;;;;7.88;1.92;;;26.10;48.90;;;;;;5052592;28;20027;-61
2022/05/04 13:02:42;;;;;;;3.40;1.85;;;26.00;48.80;;;;;;5054004;28;20473;-61
2022/05/04 13:05:09;;;;;;;9.02;2.42;;;25.80;49.20;;;;;;5053136;28;20404;-66
2022/05/04 13:07:35;;;;;;;8.25;2.47;;;25.70;49.30;;;;;;5054063;28;20024;-66
2022/05/04 13:10:03;;;;;;;7.07;2.20;;;25.70;49.50;;;;;;5053774;28;20025;-61
2022/05/04 13:12:28;;;;;;;7.38;2.17;;;25.80;49.30;;;;;;5051780;28;20037;-64
2022/05/04 13:14:54;;;;;;;6.32;2.08;;;25.80;49.20;;;;;;5052344;28;20169;-60
2022/05/04 13:17:19;;;;;;;11.27;2.33;;;25.80;49.00;;;;;;5053976;28;20452;-63
2022/05/04 13:19:45;;;;;;;4.70;1.83;;;25.80;49.10;;;;;;5055122;28;20033;-64
2022/05/04 13:22:10;;;;;;;7.43;2.03;;;25.80;49.00;;;;;;5055189;28;20025;-66
2022/05/04 13:24:36;;;;;;;9.57;2.38;;;25.80;48.90;;;;;;5056521;28;20025;-62